LEMG/AGP METAR and TAF weather

Enter ICAO airport designator
Station Type Date Time Source
LEMG METAR 2019/08/23 16:00 UTC NOAA

LEMG 231600Z 14007KT 070V220 CAVOK 27/19 Q1017 NOSIG


Station Type Date Time Source
LEMG Decoded METAR 2019/08/23 16:00 UTC NOAA

Station name not available
Aug 23, 2019 - 12:00 PM EDT / 2019.08.23 1600 UTC
Wind: from the SE (140 degrees) at 8 MPH (7 KT) (direction variable):0
Visibility: greater than 7 mile(s):0
Temperature: 80 F (27 C)
Dew Point: 66 F (19 C)
Relative Humidity: 61%
Pressure (altimeter): 30.03 in. Hg (1017 hPa)
ob: LEMG 231600Z 14007KT 070V220 CAVOK 27/19 Q1017 NOSIG
cycle: 16

Station Type Date Time Source
LEMG TAF 2019/08/23 12:27 UTC NOAA

TAF LEMG 231100Z 2312/2412 12009KT CAVOK TX31/2313Z TN20/2406Z
BECMG 2318/2320 29005KT
BECMG 2409/2411 13010KT

Example: see airport list